Time;durP1;ratioP1;P1;durP2;ratioP2;P2;SDS_P1;SDS_P2;PMS_P1;PMS_P2;Temp;Humidity;BMP_temperature;BMP_pressure;BME280_temperature;BME280_humidity;BME280_pressure;Samples;Min_cycle;Max_cycle;Signal;HPM_P1;HPM_P2
2022/02/14 00:00:12;;;;;;;7.57;3.58;;;;;;;4.01;51.64;96128.13;5037937;28;20052;-79
2022/02/14 00:02:42;;;;;;;5.18;3.75;;;;;;;4.02;50.65;96122.78;5038704;28;20122;-78
2022/02/14 00:05:11;;;;;;;5.95;3.58;;;;;;;4.06;50.40;96121.50;5037965;28;20053;-78
2022/02/14 00:07:38;;;;;;;5.43;3.03;;;;;;;4.10;50.13;96112.50;5033835;28;20519;-79
2022/02/14 00:10:07;;;;;;;5.40;3.42;;;;;;;4.15;50.46;96113.81;5015233;28;20058;-79
2022/02/14 00:12:39;;;;;;;6.20;3.55;;;;;;;4.19;50.60;96104.81;5027094;28;20064;-78
2022/02/14 00:15:08;;;;;;;5.30;4.30;;;;;;;4.22;50.63;96109.66;5038403;28;20040;-76
2022/02/14 00:17:35;;;;;;;4.47;3.42;;;;;;;4.25;50.37;96101.63;5024642;28;20056;-77
2022/02/14 00:20:06;;;;;;;5.45;3.75;;;;;;;4.30;48.94;96110.50;5016970;28;20065;-78
2022/02/14 00:22:34;;;;;;;5.15;3.40;;;;;;;4.37;49.34;96105.53;5023513;28;20060;-78
2022/02/14 00:25:01;;;;;;;6.55;3.10;;;;;;;4.41;49.50;96093.13;5038689;28;20048;-78
2022/02/14 00:27:29;;;;;;;7.55;3.65;;;;;;;4.39;48.91;96090.69;5016944;28;20056;-78
2022/02/14 00:29:57;;;;;;;10.73;4.25;;;;;;;4.41;48.36;96093.13;5015086;28;20518;-79
2022/02/14 00:32:24;;;;;;;5.68;3.65;;;;;;;4.41;48.67;96101.69;5014791;28;20064;-78
2022/02/14 00:34:52;;;;;;;5.35;4.25;;;;;;;4.40;48.72;96087.16;5014298;28;20053;-79
2022/02/14 00:37:21;;;;;;;5.90;3.45;;;;;;;4.36;50.16;96085.84;5013661;28;20050;-79
2022/02/14 00:39:49;;;;;;;7.50;3.97;;;;;;;4.36;49.73;96085.06;5013924;28;20073;-79
2022/02/14 00:42:17;;;;;;;7.00;3.75;;;;;;;4.37;49.12;96081.50;5014591;28;20062;-79
2022/02/14 00:44:44;;;;;;;5.18;3.35;;;;;;;4.34;49.10;96072.28;5014410;28;20511;-78
2022/02/14 00:47:12;;;;;;;7.25;3.35;;;;;;;4.31;49.62;96073.41;5013985;28;20057;-78
2022/02/14 00:49:39;;;;;;;5.55;3.05;;;;;;;4.30;48.91;96073.56;5014290;28;20057;-79
2022/02/14 00:52:07;;;;;;;8.02;3.33;;;;;;;4.28;49.12;96068.53;5013984;28;20046;-79
2022/02/14 00:54:36;;;;;;;4.15;3.58;;;;;;;4.32;48.96;96053.56;5013977;28;20054;-79
2022/02/14 00:57:04;;;;;;;4.00;2.95;;;;;;;4.36;48.04;96065.19;5013654;28;20049;-78
2022/02/14 00:59:31;;;;;;;4.50;3.45;;;;;;;4.34;47.89;96072.28;5014183;28;20054;-79
2022/02/14 01:01:59;;;;;;;5.35;3.55;;;;;;;4.34;47.94;96064.53;5013818;28;20061;-79
2022/02/14 01:04:26;;;;;;;6.43;3.42;;;;;;;4.33;48.55;96055.19;5013803;28;20050;-79
2022/02/14 01:06:54;;;;;;;5.07;3.42;;;;;;;4.32;47.84;96061.31;5013472;28;20100;-79
2022/02/14 01:09:22;;;;;;;5.00;3.80;;;;;;;4.30;48.00;96065.81;5014254;28;20435;-79
2022/02/14 01:11:51;;;;;;;5.35;3.20;;;;;;;4.29;48.17;96059.03;5013901;28;20463;-78
2022/02/14 01:14:19;;;;;;;5.25;3.20;;;;;;;4.30;47.66;96052.91;5013789;28;20061;-79
2022/02/14 01:16:46;;;;;;;3.97;2.72;;;;;;;4.32;47.66;96050.97;5013407;28;20427;-79
2022/02/14 01:19:14;;;;;;;5.20;2.90;;;;;;;4.32;47.77;96054.34;5013343;28;20050;-78
2022/02/14 01:21:42;;;;;;;4.93;3.08;;;;;;;4.33;47.61;96050.81;5013578;28;20056;-79
2022/02/14 01:24:10;;;;;;;7.00;3.78;;;;;;;4.35;48.05;96050.66;5013542;28;20045;-78
2022/02/14 01:26:37;;;;;;;8.40;3.55;;;;;;;4.36;47.70;96041.16;5013480;28;20050;-78
2022/02/14 01:29:06;;;;;;;4.88;3.42;;;;;;;4.33;48.20;96034.53;5013917;28;20060;-79
2022/02/14 01:31:34;;;;;;;7.25;3.30;;;;;;;4.34;48.15;96030.97;5013648;28;20421;-79
2022/02/14 01:34:03;;;;;;;5.07;3.67;;;;;;;4.33;47.71;96031.94;5013175;28;20050;-78
2022/02/14 01:36:31;;;;;;;4.13;2.70;;;;;;;4.34;48.14;96036.13;5013020;28;20056;-79
2022/02/14 01:38:58;;;;;;;6.00;3.03;;;;;;;4.34;47.85;96031.78;5013613;28;20049;-78
2022/02/14 01:41:26;;;;;;;6.95;3.35;;;;;;;4.34;48.32;96030.97;5013252;28;20057;-78
2022/02/14 01:43:53;;;;;;;6.68;3.35;;;;;;;4.34;48.01;96025.81;5012997;28;20058;-79
2022/02/14 01:46:22;;;;;;;6.65;3.55;;;;;;;4.31;47.77;96029.53;5012710;28;20053;-78
2022/02/14 01:48:50;;;;;;;8.75;3.80;;;;;;;4.26;48.28;96029.19;5013254;28;20058;-79
2022/02/14 01:51:17;;;;;;;4.85;3.40;;;;;;;4.24;48.06;96019.97;5013390;28;20050;-79
2022/02/14 01:53:45;;;;;;;6.30;4.28;;;;;;;4.18;48.07;96018.81;5013152;28;20124;-79
2022/02/14 01:56:13;;;;;;;6.13;3.45;;;;;;;4.19;48.06;96017.03;5012823;28;20467;-79
2022/02/14 01:58:40;;;;;;;4.70;3.00;;;;;;;4.17;48.04;96011.22;5012960;28;20053;-79
2022/02/14 02:01:10;;;;;;;5.32;3.42;;;;;;;4.13;48.41;96015.88;5012852;28;20599;-79
2022/02/14 02:03:39;;;;;;;5.05;3.58;;;;;;;4.09;48.33;96007.66;5013190;28;20054;-78
2022/02/14 02:06:07;;;;;;;4.93;3.03;;;;;;;4.05;47.88;96006.34;5012756;28;20057;-79
2022/02/14 02:08:35;;;;;;;6.78;3.47;;;;;;;4.02;48.24;96001.47;5012905;28;20061;-78
2022/02/14 02:13:51;;;;;;;5.63;3.03;;;;;;;3.97;48.22;95993.41;5012720;28;20432;-78
2022/02/14 02:16:19;;;;;;;4.57;3.05;;;;;;;3.95;48.43;95989.38;5014852;28;20397;-78
2022/02/14 02:18:48;;;;;;;4.32;3.17;;;;;;;3.91;48.97;95975.97;5017159;28;20062;-79
2022/02/14 02:21:16;;;;;;;7.43;3.47;;;;;;;3.90;48.67;95988.06;5017143;28;20050;-79
2022/02/14 02:23:44;;;;;;;6.45;3.45;;;;;;;3.92;48.64;95975.00;5017186;28;20057;-79
2022/02/14 02:26:13;;;;;;;9.20;3.25;;;;;;;3.94;48.90;95978.25;5016454;28;20076;-79
2022/02/14 02:28:40;;;;;;;4.68;3.22;;;;;;;3.96;49.01;95966.00;5016725;28;20053;-79
2022/02/14 02:31:08;;;;;;;4.35;3.20;;;;;;;3.96;48.85;95960.84;5017089;28;20058;-78
2022/02/14 02:33:36;;;;;;;7.78;3.70;;;;;;;3.95;48.39;95964.38;5016530;28;20046;-78
2022/02/14 02:36:04;;;;;;;3.83;2.72;;;;;;;3.95;48.68;95959.22;5016568;28;20060;-79
2022/02/14 02:38:32;;;;;;;7.90;3.58;;;;;;;3.94;49.12;95947.28;5024367;28;20045;-78
2022/02/14 02:40:59;;;;;;;5.70;3.40;;;;;;;3.94;49.11;95957.59;5036775;28;20050;-79
2022/02/14 02:43:30;;;;;;;5.10;3.45;;;;;;;3.95;50.53;95948.88;5035345;28;20050;-78
2022/02/14 02:45:58;;;;;;;6.30;3.15;;;;;;;3.94;48.95;95957.59;5016702;28;20053;-79
2022/02/14 02:48:25;;;;;;;5.72;3.22;;;;;;;3.92;48.28;95959.53;5016466;28;20050;-78
2022/02/14 02:51:02;;;;;;;6.47;3.25;;;;;;;3.90;48.49;95954.53;5016533;28;20507;-78
2022/02/14 02:53:30;;;;;;;4.95;3.28;;;;;;;3.87;48.71;95957.44;5016649;28;20054;-79
2022/02/14 02:55:59;;;;;;;7.25;3.80;;;;;;;3.85;48.58;95946.44;5015758;28;20547;-78
2022/02/14 02:58:26;;;;;;;9.18;3.47;;;;;;;3.83;48.52;95945.00;5016245;28;20053;-77
2022/02/14 03:00:55;;;;;;;5.05;3.53;;;;;;;3.80;50.19;95940.13;5016356;28;20054;-79
2022/02/14 03:03:23;;;;;;;7.82;3.78;;;;;;;3.76;49.95;95936.25;5016248;28;20571;-79
2022/02/14 03:05:50;;;;;;;11.38;3.70;;;;;;;3.75;50.54;95937.22;5020069;28;20030;-78
2022/02/14 03:08:18;;;;;;;5.00;3.47;;;;;;;3.72;49.52;95933.97;5040468;28;20037;-78
2022/02/14 03:10:46;;;;;;;9.38;4.13;;;;;;;3.72;49.02;95920.28;5034544;28;20080;-78
2022/02/14 03:13:14;;;;;;;7.90;4.38;;;;;;;3.72;48.55;95923.66;5016735;28;20499;-79
2022/02/14 03:15:42;;;;;;;8.23;4.53;;;;;;;3.72;48.14;95923.66;5016613;28;20054;-79
2022/02/14 03:18:10;;;;;;;6.13;4.22;;;;;;;3.75;48.38;95926.91;5037709;28;20042;-78
2022/02/14 03:20:38;;;;;;;8.60;4.43;;;;;;;3.77;49.95;95914.66;5028060;28;20057;-79
2022/02/14 03:23:05;;;;;;;11.65;4.00;;;;;;;3.79;49.72;95920.47;5015673;28;20061;-79
2022/02/14 03:25:33;;;;;;;6.72;3.90;;;;;;;3.83;49.23;95914.03;5015754;28;20448;-78
2022/02/14 03:28:01;;;;;;;6.88;3.65;;;;;;;3.89;49.27;95913.38;5015225;28;20455;-79
2022/02/14 03:30:28;;;;;;;6.50;3.75;;;;;;;3.94;49.87;95916.31;5015410;28;20050;-79
2022/02/14 03:32:56;;;;;;;7.35;3.92;;;;;;;3.96;49.13;95916.97;5015475;28;20550;-79
2022/02/14 03:35:25;;;;;;;7.10;3.75;;;;;;;3.99;48.25;95919.22;5015794;28;20416;-79
2022/02/14 03:37:56;;;;;;;6.30;4.00;;;;;;;4.00;48.26;95912.28;5014990;28;20052;-78
2022/02/14 03:40:25;;;;;;;5.63;4.03;;;;;;;4.00;49.20;95915.69;5015256;28;20085;-79
2022/02/14 03:42:52;;;;;;;6.93;3.85;;;;;;;4.00;48.06;95900.22;5015687;28;20049;-78
2022/02/14 03:45:20;;;;;;;4.32;3.28;;;;;;;4.00;48.73;95900.22;5015196;28;20054;-79
2022/02/14 03:47:47;;;;;;;6.53;3.45;;;;;;;3.99;48.55;95908.91;5015316;28;20050;-79
2022/02/14 03:50:16;;;;;;;7.28;4.18;;;;;;;3.98;48.51;95896.97;5015718;28;20073;-79
2022/02/14 03:52:45;;;;;;;11.32;5.25;;;;;;;3.97;47.71;95900.50;5015551;28;20480;-79
2022/02/14 03:55:13;;;;;;;8.05;3.90;;;;;;;3.96;47.29;95898.91;5015046;28;20054;-78
2022/02/14 03:57:41;;;;;;;9.73;4.85;;;;;;;3.91;48.36;95890.81;5014330;28;20049;-79
2022/02/14 04:00:12;;;;;;;8.10;4.47;;;;;;;3.87;50.05;95895.50;5015197;28;20054;-79
2022/02/14 04:02:39;;;;;;;9.55;4.55;;;;;;;3.85;47.82;95891.47;5015150;28;20057;-79
2022/02/14 04:05:08;;;;;;;9.05;5.15;;;;;;;3.83;48.39;95888.22;5014886;28;20065;-79
2022/02/14 04:07:35;;;;;;;11.13;4.68;;;;;;;3.85;47.86;95896.63;5014495;28;20440;-79
2022/02/14 04:10:05;;;;;;;8.55;4.90;;;;;;;3.84;47.14;95897.56;5014869;28;20054;-78
2022/02/14 04:12:33;;;;;;;9.32;4.95;;;;;;;3.85;47.95;95899.22;5014656;28;20046;-79
2022/02/14 04:15:01;;;;;;;7.90;4.90;;;;;;;3.85;48.06;95896.63;5014853;28;20416;-79
2022/02/14 04:17:29;;;;;;;6.22;3.83;;;;;;;3.83;47.67;95898.56;5024944;22;20531;-76
2022/02/14 04:19:56;;;;;;;8.85;4.20;;;;;;;3.84;46.99;95897.56;4995772;28;20054;-75
2022/02/14 04:22:24;;;;;;;7.45;4.20;;;;;;;3.83;47.35;95895.97;4996123;28;20076;-77
2022/02/14 04:24:51;;;;;;;7.32;4.47;;;;;;;3.79;47.99;95898.06;4995934;28;20054;-77
2022/02/14 04:27:20;;;;;;;7.05;4.07;;;;;;;3.79;48.10;95892.09;4995891;28;20057;-76
2022/02/14 04:29:48;;;;;;;4.75;3.30;;;;;;;3.78;47.50;95888.69;4996459;28;20054;-76
2022/02/14 04:32:15;;;;;;;4.22;3.00;;;;;;;3.80;46.75;95884.16;4995950;28;20050;-76
2022/02/14 04:34:43;;;;;;;7.85;3.88;;;;;;;3.80;46.87;95880.78;4995641;28;20046;-75
2022/02/14 04:37:10;;;;;;;7.65;4.10;;;;;;;3.81;48.26;95874.69;4995345;28;20050;-76
2022/02/14 04:39:38;;;;;;;5.18;3.42;;;;;;;3.80;48.06;95884.16;4995077;28;20054;-76
2022/02/14 04:42:06;;;;;;;6.20;3.83;;;;;;;3.81;47.07;95885.00;5008426;28;20050;-75
2022/02/14 04:44:35;;;;;;;5.40;3.53;;;;;;;3.80;46.92;95888.53;5014951;28;20073;-75
2022/02/14 04:47:03;;;;;;;6.07;3.33;;;;;;;3.79;46.79;95882.56;5015382;28;20065;-75
2022/02/14 04:49:30;;;;;;;4.35;3.42;;;;;;;3.78;46.95;95885.28;5015276;28;20046;-75
2022/02/14 04:51:58;;;;;;;5.20;3.30;;;;;;;3.79;46.90;95886.94;5007381;28;20436;-76
2022/02/14 04:54:26;;;;;;;5.85;3.55;;;;;;;3.80;46.01;95883.38;4999658;28;20050;-76
2022/02/14 04:56:53;;;;;;;6.43;4.07;;;;;;;3.79;46.25;95876.59;4995718;28;20050;-75
2022/02/14 04:59:21;;;;;;;6.50;3.60;;;;;;;3.77;46.37;95878.53;4995971;28;20050;-77
2022/02/14 05:01:49;;;;;;;4.30;3.53;;;;;;;3.78;46.64;95882.72;4994292;28;20057;-75
2022/02/14 05:04:17;;;;;;;6.45;3.92;;;;;;;3.80;46.92;95875.63;4996364;28;20050;-77
2022/02/14 05:06:45;;;;;;;9.77;4.47;;;;;;;3.78;47.63;95877.56;4996308;28;20050;-76
2022/02/14 05:09:12;;;;;;;4.88;3.40;;;;;;;3.71;46.56;95875.59;4996729;28;20046;-76
2022/02/14 05:11:40;;;;;;;8.93;5.07;;;;;;;3.68;46.46;95869.97;4996589;28;20054;-75
2022/02/14 05:14:07;;;;;;;8.57;3.80;;;;;;;3.65;46.71;95871.09;4995194;28;20053;-77
2022/02/14 05:16:35;;;;;;;10.25;4.63;;;;;;;3.59;46.75;95869.13;4995107;28;20054;-76
2022/02/14 05:19:04;;;;;;;6.93;4.32;;;;;;;3.56;48.23;95856.53;4995509;28;20054;-76
2022/02/14 05:21:32;;;;;;;9.60;3.85;;;;;;;3.55;47.32;95852.34;4995655;28;20177;-77
2022/02/14 05:23:59;;;;;;;5.38;4.18;;;;;;;3.56;47.74;95856.53;4994755;28;20505;-76
2022/02/14 05:26:27;;;;;;;8.15;4.30;;;;;;;3.55;47.02;95865.25;4995010;28;20057;-76
2022/02/14 05:28:55;;;;;;;8.70;5.38;;;;;;;3.56;46.92;95861.69;4994977;28;20054;-75
2022/02/14 05:31:23;;;;;;;7.30;4.63;;;;;;;3.52;47.06;95870.72;4995129;28;20137;-76
2022/02/14 05:33:51;;;;;;;6.95;4.18;;;;;;;3.49;48.05;95868.44;4995194;28;20050;-75
2022/02/14 05:36:20;;;;;;;8.63;4.72;;;;;;;3.42;47.07;95864.88;4995053;28;20057;-75
2022/02/14 05:38:48;;;;;;;8.25;4.40;;;;;;;3.38;47.00;95871.31;4995008;28;20057;-77
2022/02/14 05:41:16;;;;;;;10.07;4.45;;;;;;;3.36;47.07;95870.66;4994885;28;20046;-77
2022/02/14 05:43:43;;;;;;;6.47;4.82;;;;;;;3.30;47.70;95866.91;4994997;28;20050;-76
2022/02/14 05:46:14;;;;;;;5.88;4.40;;;;;;;3.24;47.67;95865.78;4995249;28;20077;-76
2022/02/14 05:48:42;;;;;;;7.47;5.22;;;;;;;3.19;47.79;95865.44;4995052;28;20049;-77
2022/02/14 05:51:10;;;;;;;10.82;5.95;;;;;;;3.15;47.59;95868.44;4993917;28;20109;-76
2022/02/14 05:53:39;;;;;;;6.97;4.50;;;;;;;3.09;48.50;95869.88;4995163;28;20058;-75
2022/02/14 05:56:08;;;;;;;7.65;5.13;;;;;;;3.05;49.66;95874.53;4994525;28;20054;-77
2022/02/14 05:58:41;;;;;;;12.05;5.32;;;;;;;3.05;49.11;95871.13;4994720;28;20050;-77
2022/02/14 06:01:09;;;;;;;14.00;6.43;;;;;;;3.03;48.57;95868.72;4994850;28;20553;-77
2022/02/14 06:03:37;;;;;;;9.93;6.03;;;;;;;3.00;48.00;95879.34;4994714;28;20062;-76
2022/02/14 06:06:04;;;;;;;9.60;6.10;;;;;;;2.98;48.71;95880.44;4994816;28;20050;-76
2022/02/14 06:08:32;;;;;;;10.15;5.38;;;;;;;2.97;48.88;95871.88;4994620;28;20050;-76
2022/02/14 06:11:02;;;;;;;11.10;6.43;;;;;;;2.97;48.44;95876.25;4994257;28;20050;-77
2022/02/14 06:13:29;;;;;;;8.30;5.82;;;;;;;2.95;49.02;95878.16;4993786;28;20416;-76
2022/02/14 06:15:57;;;;;;;10.15;6.53;;;;;;;2.92;48.74;95876.69;4993458;28;20054;-76
2022/02/14 06:18:24;;;;;;;11.38;6.38;;;;;;;2.89;48.97;95877.81;4993322;28;20046;-76
2022/02/14 06:20:52;;;;;;;10.38;5.57;;;;;;;2.91;48.54;95884.56;4993413;28;20046;-76
2022/02/14 06:23:19;;;;;;;13.15;6.63;;;;;;;2.95;48.56;95885.88;4981555;28;20042;-76
2022/02/14 06:25:47;;;;;;;12.57;6.32;;;;;;;2.99;48.10;95880.28;4990018;28;20471;-75
2022/02/14 06:28:15;;;;;;;15.30;7.00;;;;;;;3.03;48.13;95881.59;4973206;28;20047;-76
2022/02/14 06:30:45;;;;;;;18.33;6.10;;;;;;;3.06;47.92;95880.47;4980251;28;20475;-77
2022/02/14 06:33:14;;;;;;;12.38;5.85;;;;;;;3.09;47.60;95881.00;4993314;28;20051;-76
2022/02/14 06:35:42;;;;;;;11.55;5.68;;;;;;;3.13;47.51;95884.06;4992847;28;20082;-76
2022/02/14 06:38:09;;;;;;;8.90;6.22;;;;;;;3.16;47.64;95880.38;4992774;28;20049;-76
2022/02/14 06:40:41;;;;;;;9.32;5.47;;;;;;;3.15;47.67;95884.72;4975717;28;20114;-76
2022/02/14 06:43:09;;;;;;;8.48;5.40;;;;;;;3.18;47.62;95889.56;4973368;28;20464;-76
2022/02/14 06:45:37;;;;;;;9.98;5.57;;;;;;;3.22;47.32;95893.47;4973030;28;20057;-76
2022/02/14 06:48:06;;;;;;;9.65;5.47;;;;;;;3.23;47.22;95887.34;4972864;28;20047;-75
2022/02/14 06:50:33;;;;;;;9.50;6.22;;;;;;;3.23;47.61;95887.34;4973375;28;20047;-76
2022/02/14 06:53:01;;;;;;;11.77;5.93;;;;;;;3.24;47.29;95894.13;4973343;28;20493;-76
2022/02/14 06:55:28;;;;;;;7.22;5.10;;;;;;;3.26;47.22;95891.41;4977797;28;20520;-75
2022/02/14 06:57:56;;;;;;;9.88;5.15;;;;;;;3.24;47.12;95881.22;4982530;28;20058;-75
2022/02/14 07:00:24;;;;;;;7.72;5.75;;;;;;;3.24;47.46;95888.97;4988139;28;20053;-76
2022/02/14 07:02:53;;;;;;;11.65;6.25;;;;;;;3.25;47.56;95893.16;5001919;28;20078;-76
2022/02/14 07:05:24;;;;;;;11.73;6.53;;;;;;;3.25;47.53;95900.88;5016897;28;20056;-75
2022/02/14 07:07:52;;;;;;;16.60;6.35;;;;;;;3.24;47.90;95886.38;5000456;28;20127;-76
2022/02/14 07:10:20;;;;;;;9.80;5.95;;;;;;;3.24;47.42;95883.00;4995955;28;20057;-76
2022/02/14 07:12:47;;;;;;;11.15;6.07;;;;;;;3.24;47.66;95891.53;4995723;28;20555;-75
2022/02/14 07:15:15;;;;;;;11.30;5.88;;;;;;;3.26;47.44;95886.25;5009752;28;20050;-76
2022/02/14 07:17:45;;;;;;;12.63;6.50;;;;;;;3.25;47.62;95882.84;4995311;28;20066;-76
2022/02/14 07:20:14;;;;;;;10.23;5.70;;;;;;;3.29;47.48;95885.91;4996357;28;20053;-76
2022/02/14 07:22:43;;;;;;;11.98;5.30;;;;;;;3.33;47.14;95886.44;4995856;28;20148;-76
2022/02/14 07:25:11;;;;;;;8.65;5.75;;;;;;;3.38;47.47;95884.19;4995498;28;20046;-76
2022/02/14 07:27:40;;;;;;;8.55;6.15;;;;;;;3.42;47.22;95876.00;5009807;28;20504;-76
2022/02/14 07:30:09;;;;;;;11.93;5.20;;;;;;;3.46;47.44;95879.88;5015175;28;20049;-76
2022/02/14 07:32:38;;;;;;;10.20;5.50;;;;;;;3.51;47.42;95877.63;5015462;28;20435;-76
2022/02/14 07:35:07;;;;;;;13.48;5.70;;;;;;;3.57;47.55;95878.00;5015217;28;20058;-76
2022/02/14 07:37:35;;;;;;;11.32;7.13;;;;;;;3.61;46.95;95877.53;5014912;28;20045;-75
2022/02/14 07:40:04;;;;;;;14.55;6.32;;;;;;;3.68;46.52;95864.81;5015053;28;20050;-75
2022/02/14 07:42:31;;;;;;;9.38;5.15;;;;;;;3.76;46.94;95874.31;5018265;28;20054;-77
2022/02/14 07:44:59;;;;;;;11.13;5.38;;;;;;;3.81;46.73;95860.00;5019401;28;20052;-76
2022/02/14 07:47:27;;;;;;;10.10;5.65;;;;;;;3.89;46.40;95872.94;5017678;28;20056;-75
2022/02/14 07:49:54;;;;;;;9.93;5.50;;;;;;;3.97;45.87;95873.91;5018776;28;20057;-75
2022/02/14 07:52:22;;;;;;;10.13;4.93;;;;;;;4.05;45.63;95871.34;5011303;28;20046;-76
2022/02/14 07:54:51;;;;;;;8.70;5.05;;;;;;;4.13;45.46;95872.16;4996554;28;20061;-76
2022/02/14 07:57:19;;;;;;;9.02;5.13;;;;;;;4.23;45.40;95869.44;4997308;28;20531;-75
2022/02/14 07:59:47;;;;;;;9.93;4.45;;;;;;;4.33;45.11;95869.28;4996689;28;20050;-75
2022/02/14 08:02:14;;;;;;;10.77;5.88;;;;;;;4.44;45.16;95863.81;4996383;28;20065;-76
2022/02/14 08:04:43;;;;;;;8.05;4.90;;;;;;;4.53;44.51;95864.59;4996032;28;20061;-76
2022/02/14 08:07:11;;;;;;;8.18;4.25;;;;;;;4.61;44.76;95861.19;4995190;28;20047;-76
2022/02/14 08:09:39;;;;;;;10.57;6.00;;;;;;;4.67;44.31;95863.13;4995140;28;20117;-76
2022/02/14 08:12:09;;;;;;;8.55;5.65;;;;;;;4.73;44.03;95862.50;4995068;28;20066;-76
2022/02/14 08:14:37;;;;;;;7.50;4.97;;;;;;;4.78;44.27;95862.00;4994251;28;20053;-76
2022/02/14 08:17:06;;;;;;;7.50;4.75;;;;;;;4.82;44.16;95864.09;4995058;28;20079;-75
2022/02/14 08:19:33;;;;;;;9.38;5.55;;;;;;;4.86;43.83;95865.38;4994975;28;20050;-76
2022/02/14 08:22:05;;;;;;;9.60;5.23;;;;;;;4.89;44.18;95859.06;4995387;28;20050;-75
2022/02/14 08:24:33;;;;;;;9.40;5.22;;;;;;;4.92;43.57;95861.34;4994809;28;20288;-76
2022/02/14 08:27:03;;;;;;;8.55;5.55;;;;;;;5.00;43.91;95865.66;4994634;28;20146;-76
2022/02/14 08:29:32;;;;;;;12.68;7.35;;;;;;;5.05;43.31;95858.22;4995501;28;20061;-76
2022/02/14 08:31:59;;;;;;;13.27;7.68;;;;;;;5.12;43.41;95859.19;4995079;28;20054;-75
2022/02/14 08:34:28;;;;;;;9.15;5.40;;;;;;;5.20;43.14;95859.16;4994750;28;20432;-76
2022/02/14 08:36:56;;;;;;;9.43;4.55;;;;;;;5.36;42.82;95853.94;4995615;28;20062;-75
2022/02/14 08:39:24;;;;;;;8.50;4.75;;;;;;;5.55;42.94;95857.09;4995626;28;20528;-75
2022/02/14 08:41:51;;;;;;;8.25;4.63;;;;;;;5.76;42.24;95856.50;4995156;28;20054;-75
2022/02/14 08:44:19;;;;;;;11.52;5.43;;;;;;;6.00;41.57;95850.41;5010436;28;20056;-75
2022/02/14 08:46:48;;;;;;;9.05;4.60;;;;;;;6.23;41.22;95855.63;5013545;28;20056;-75
2022/02/14 08:49:15;;;;;;;6.53;4.38;;;;;;;6.45;40.78;95851.41;5013138;28;20512;-76
2022/02/14 08:51:43;;;;;;;7.55;4.25;;;;;;;6.69;40.83;95839.22;5007719;28;20515;-76
2022/02/14 08:54:10;;;;;;;6.95;4.30;;;;;;;6.96;40.14;95849.00;4994252;28;20057;-75
2022/02/14 08:56:37;;;;;;;7.35;4.38;;;;;;;7.29;39.60;95838.28;4993586;28;20055;-75
2022/02/14 08:59:05;;;;;;;6.97;3.95;;;;;;;7.63;39.39;95834.28;4993899;28;20077;-75
2022/02/14 09:01:33;;;;;;;6.22;3.88;;;;;;;7.99;38.96;95834.31;4993889;28;20046;-77
2022/02/14 09:04:01;;;;;;;6.93;3.30;;;;;;;8.37;37.48;95822.88;4993736;28;20050;-79
2022/02/14 09:06:29;;;;;;;7.28;3.67;;;;;;;8.73;37.06;95824.59;5000356;28;20056;-77
2022/02/14 09:09:16;;;;;;;6.47;3.55;;;;;;;9.08;36.84;95818.41;5013569;28;20508;-76
2022/02/14 09:11:44;;;;;;;6.30;3.28;;;;;;;9.40;36.99;95811.00;5014333;28;20054;-76
2022/02/14 09:14:12;;;;;;;7.00;3.80;;;;;;;9.76;35.95;95822.13;5013796;28;20053;-76
2022/02/14 09:16:39;;;;;;;8.02;4.68;;;;;;;10.10;35.22;95816.00;5014402;28;20056;-76
2022/02/14 09:19:08;;;;;;;5.65;3.42;;;;;;;10.42;34.44;95809.25;5014443;28;20046;-77
2022/02/14 09:21:36;;;;;;;5.60;3.17;;;;;;;10.71;35.18;95813.28;5013798;28;20424;-74
2022/02/14 09:24:04;;;;;;;5.72;3.08;;;;;;;10.98;34.15;95815.06;5013790;28;20061;-75
2022/02/14 09:26:32;;;;;;;7.75;4.25;;;;;;;11.20;33.97;95810.41;5013292;28;20065;-75
2022/02/14 09:28:59;;;;;;;8.48;3.40;;;;;;;11.44;34.55;95814.16;5013467;28;20065;-74
2022/02/14 09:31:27;;;;;;;7.38;4.28;;;;;;;11.72;33.74;95812.03;5013635;28;20058;-75
2022/02/14 09:33:54;;;;;;;6.82;3.80;;;;;;;11.93;32.90;95813.53;5013121;28;20080;-74
2022/02/14 09:36:23;;;;;;;8.95;3.85;;;;;;;12.12;32.87;95811.03;5013076;28;20523;-74
2022/02/14 09:38:51;;;;;;;5.15;3.25;;;;;;;12.29;32.80;95814.75;5012888;28;20050;-74
2022/02/14 09:41:18;;;;;;;6.30;3.90;;;;;;;12.46;32.30;95814.22;5012962;28;20503;-75
2022/02/14 09:43:47;;;;;;;6.40;4.30;;;;;;;12.70;31.78;95804.78;5013260;28;20571;-75
2022/02/14 09:46:16;;;;;;;6.53;3.70;;;;;;;12.89;31.35;95808.25;5012992;28;20050;-74
2022/02/14 09:48:44;;;;;;;10.25;5.25;;;;;;;12.98;31.14;95805.13;5013112;28;20104;-74
2022/02/14 09:51:13;;;;;;;7.63;4.03;;;;;;;13.09;31.37;95798.38;5013045;28;20050;-75
2022/02/14 09:53:44;;;;;;;10.63;5.18;;;;;;;13.19;30.76;95803.91;4995472;28;20543;-74
2022/02/14 09:56:12;;;;;;;9.95;4.85;;;;;;;13.34;30.41;95802.81;4992607;28;20061;-75
2022/02/14 09:58:40;;;;;;;10.23;4.40;;;;;;;13.53;30.44;95798.34;4993377;28;20061;-74
2022/02/14 10:01:07;;;;;;;7.47;4.70;;;;;;;13.60;30.35;95794.63;4992988;28;20049;-75
2022/02/14 10:03:35;;;;;;;6.78;3.90;;;;;;;13.72;30.70;95799.13;4993223;28;20046;-75
2022/02/14 10:06:03;;;;;;;11.45;6.28;;;;;;;13.97;30.15;95791.94;4993628;28;20065;-75
2022/02/14 10:08:32;;;;;;;11.00;5.38;;;;;;;14.31;29.69;95794.88;4993699;28;20062;-75
2022/02/14 10:11:13;;;;;;;7.57;3.67;;;;;;;14.63;29.21;95800.69;4993868;28;20516;-75
2022/02/14 10:13:43;;;;;;;6.30;4.05;;;;;;;15.08;28.63;95796.69;4993342;28;20050;-74
2022/02/14 10:16:13;;;;;;;5.47;3.80;;;;;;;15.73;28.10;95797.53;4993341;28;20057;-75
2022/02/14 10:18:42;;;;;;;6.95;3.88;;;;;;;16.66;26.38;95804.16;5027719;23;20057;-78
2022/02/14 10:21:20;;;;;;;4.88;3.80;;;;;;;17.34;25.27;95798.00;5015682;28;20050;-77
2022/02/14 10:23:58;;;;;;;9.85;4.15;;;;;;;16.95;25.14;95796.19;5016512;28;20061;-77
2022/02/14 10:26:29;;;;;;;12.63;4.10;;;;;;;16.64;24.90;95794.91;5015378;28;20050;-77
2022/02/14 10:28:57;;;;;;;13.60;4.97;;;;;;;16.04;26.22;95794.41;5015388;28;20104;-77
2022/02/14 10:31:25;;;;;;;6.55;3.40;;;;;;;15.66;26.96;95798.41;5017220;28;20046;-76
2022/02/14 10:33:54;;;;;;;5.28;3.80;;;;;;;15.55;26.98;95794.00;5016304;28;20049;-76
2022/02/14 10:36:28;;;;;;;10.50;4.43;;;;;;;15.15;26.91;95792.13;5017239;28;20046;-77
2022/02/14 10:38:56;;;;;;;14.32;5.88;;;;;;;14.81;27.62;95799.78;5020854;28;20432;-77
2022/02/14 10:41:24;;;;;;;34.92;20.73;;;;;;;14.50;28.06;95800.06;5020228;28;20049;-79
2022/02/14 10:43:53;;;;;;;6.45;4.68;;;;;;;14.26;28.42;95801.84;5020936;28;20050;-78
2022/02/14 10:46:22;;;;;;;10.15;5.25;;;;;;;13.97;28.86;95801.63;5020830;28;20050;-77
2022/02/14 10:48:56;;;;;;;8.57;6.07;;;;;;;13.74;28.97;95802.31;5021483;28;20046;-77
2022/02/14 10:51:23;;;;;;;11.40;7.65;;;;;;;13.55;29.65;95801.53;5020541;28;20112;-77
2022/02/14 10:53:51;;;;;;;9.50;5.88;;;;;;;13.35;30.87;95801.78;5020844;28;20061;-76
2022/02/14 10:56:22;;;;;;;10.40;5.32;;;;;;;13.15;30.62;95797.50;5020602;28;20085;-79
2022/02/14 10:59:06;;;;;;;12.15;4.85;;;;;;;13.00;30.58;95786.59;5020737;28;20058;-79
2022/02/14 11:01:35;;;;;;;16.17;4.85;;;;;;;12.86;30.98;95791.16;5024453;28;20045;-79
2022/02/14 11:04:03;;;;;;;10.82;5.25;;;;;;;12.75;31.51;95791.88;5017016;28;20042;-77
2022/02/14 11:06:35;;;;;;;10.98;5.50;;;;;;;12.60;31.35;95784.34;5018532;28;20046;-79
2022/02/14 11:09:03;;;;;;;13.90;5.53;;;;;;;12.47;31.77;95784.44;5018950;28;20053;-77
2022/02/14 11:11:37;;;;;;;10.23;4.90;;;;;;;12.39;32.23;95787.31;5018565;28;20050;-76
2022/02/14 11:14:08;;;;;;;12.18;5.13;;;;;;;12.25;32.05;95776.97;5018555;28;20109;-77
2022/02/14 11:16:38;;;;;;;10.15;5.20;;;;;;;12.14;32.34;95780.25;5016614;28;20053;-77
2022/02/14 11:19:09;;;;;;;8.75;5.32;;;;;;;12.08;32.31;95771.44;5016550;28;20124;-77
2022/02/14 11:21:38;;;;;;;6.93;5.00;;;;;;;11.98;32.61;95767.69;5016510;28;20057;-79
2022/02/14 11:24:17;;;;;;;21.13;5.00;;;;;;;11.89;33.09;95759.28;5016393;28;20057;-78
2022/02/14 11:26:55;;;;;;;11.18;4.78;;;;;;;11.84;33.16;95765.13;5016593;28;20050;-77
2022/02/14 11:29:41;;;;;;;8.27;5.07;;;;;;;11.79;33.05;95759.72;5016097;28;20046;-76
2022/02/14 11:32:18;;;;;;;9.13;4.63;;;;;;;11.74;33.48;95751.69;5016135;28;20050;-76
2022/02/14 11:34:54;;;;;;;7.65;4.40;;;;;;;11.67;33.53;95749.13;5016413;28;20042;-77
2022/02/14 11:37:22;;;;;;;7.00;4.35;;;;;;;11.60;33.96;95750.19;5015317;28;20045;-76
2022/02/14 11:39:49;;;;;;;8.75;4.18;;;;;;;11.52;33.91;95744.19;5015681;28;20053;-77
2022/02/14 11:42:17;;;;;;;6.57;4.20;;;;;;;11.49;34.26;95747.22;5015175;28;20046;-77
2022/02/14 11:44:46;;;;;;;9.57;4.32;;;;;;;11.50;34.35;95750.63;5015217;28;20045;-77
2022/02/14 11:47:19;;;;;;;8.38;4.15;;;;;;;11.48;34.22;95740.41;5015112;28;20060;-77